sensor_id;sensor_type;location;lat;lon;timestamp;P1;durP1;ratioP1;P2;durP2;ratioP2
43048;SDS011;28673;44.412;11.918;2023-02-28T00:01:19;18.08;;;10.10;;
43048;SDS011;28673;44.412;11.918;2023-02-28T00:03:45;17.60;;;10.20;;
43048;SDS011;28673;44.412;11.918;2023-02-28T00:06:11;22.17;;;9.20;;
43048;SDS011;28673;44.412;11.918;2023-02-28T00:08:37;16.45;;;8.88;;
43048;SDS011;28673;44.412;11.918;2023-02-28T00:11:07;13.57;;;8.48;;
43048;SDS011;28673;44.412;11.918;2023-02-28T00:13:35;16.23;;;8.32;;
43048;SDS011;28673;44.412;11.918;2023-02-28T00:16:07;14.32;;;9.05;;
43048;SDS011;28673;44.412;11.918;2023-02-28T00:18:34;22.50;;;8.45;;
43048;SDS011;28673;44.412;11.918;2023-02-28T00:21:00;19.20;;;8.93;;
43048;SDS011;28673;44.412;11.918;2023-02-28T00:23:27;19.15;;;9.40;;
43048;SDS011;28673;44.412;11.918;2023-02-28T00:25:53;18.30;;;9.07;;
43048;SDS011;28673;44.412;11.918;2023-02-28T00:28:19;22.85;;;9.05;;
43048;SDS011;28673;44.412;11.918;2023-02-28T00:30:45;14.90;;;9.73;;
43048;SDS011;28673;44.412;11.918;2023-02-28T00:33:11;15.13;;;8.65;;
43048;SDS011;28673;44.412;11.918;2023-02-28T00:35:38;16.23;;;8.50;;
43048;SDS011;28673;44.412;11.918;2023-02-28T00:38:03;21.75;;;9.25;;
43048;SDS011;28673;44.412;11.918;2023-02-28T00:40:29;13.75;;;9.38;;
43048;SDS011;28673;44.412;11.918;2023-02-28T00:42:55;16.15;;;9.35;;
43048;SDS011;28673;44.412;11.918;2023-02-28T00:45:21;36.15;;;10.20;;
43048;SDS011;28673;44.412;11.918;2023-02-28T00:47:47;15.68;;;9.55;;
43048;SDS011;28673;44.412;11.918;2023-02-28T00:50:17;22.92;;;10.15;;
43048;SDS011;28673;44.412;11.918;2023-02-28T00:52:46;18.40;;;10.40;;
43048;SDS011;28673;44.412;11.918;2023-02-28T00:55:13;17.33;;;9.57;;
43048;SDS011;28673;44.412;11.918;2023-02-28T00:57:39;17.85;;;8.55;;
43048;SDS011;28673;44.412;11.918;2023-02-28T01:00:06;16.25;;;8.95;;
43048;SDS011;28673;44.412;11.918;2023-02-28T01:02:32;16.67;;;9.25;;
43048;SDS011;28673;44.412;11.918;2023-02-28T01:04:58;16.38;;;10.10;;
43048;SDS011;28673;44.412;11.918;2023-02-28T01:07:24;15.07;;;8.93;;
43048;SDS011;28673;44.412;11.918;2023-02-28T01:09:50;13.27;;;9.15;;
43048;SDS011;28673;44.412;11.918;2023-02-28T01:12:16;22.42;;;9.63;;
43048;SDS011;28673;44.412;11.918;2023-02-28T01:14:42;16.88;;;9.05;;
43048;SDS011;28673;44.412;11.918;2023-02-28T01:17:08;19.73;;;9.68;;
43048;SDS011;28673;44.412;11.918;2023-02-28T01:19:34;19.35;;;9.50;;
43048;SDS011;28673;44.412;11.918;2023-02-28T01:22:02;18.58;;;11.30;;
43048;SDS011;28673;44.412;11.918;2023-02-28T01:24:29;19.33;;;8.73;;
43048;SDS011;28673;44.412;11.918;2023-02-28T01:26:55;13.90;;;9.13;;
43048;SDS011;28673;44.412;11.918;2023-02-28T01:29:21;17.50;;;9.60;;
43048;SDS011;28673;44.412;11.918;2023-02-28T01:31:46;12.55;;;8.65;;
43048;SDS011;28673;44.412;11.918;2023-02-28T01:34:12;15.20;;;9.45;;
43048;SDS011;28673;44.412;11.918;2023-02-28T01:36:38;15.75;;;10.07;;
43048;SDS011;28673;44.412;11.918;2023-02-28T01:39:04;16.95;;;10.75;;
43048;SDS011;28673;44.412;11.918;2023-02-28T01:41:31;17.83;;;11.43;;
43048;SDS011;28673;44.412;11.918;2023-02-28T01:47:04;15.50;;;10.05;;
43048;SDS011;28673;44.412;11.918;2023-02-28T01:49:29;21.20;;;10.23;;
43048;SDS011;28673;44.412;11.918;2023-02-28T01:51:55;20.45;;;10.30;;
43048;SDS011;28673;44.412;11.918;2023-02-28T01:54:25;20.77;;;10.55;;
43048;SDS011;28673;44.412;11.918;2023-02-28T01:57:04;13.87;;;9.40;;
43048;SDS011;28673;44.412;11.918;2023-02-28T01:59:36;19.13;;;9.80;;
43048;SDS011;28673;44.412;11.918;2023-02-28T02:02:14;19.73;;;11.20;;
43048;SDS011;28673;44.412;11.918;2023-02-28T02:04:46;20.98;;;10.10;;
43048;SDS011;28673;44.412;11.918;2023-02-28T02:07:18;21.35;;;11.60;;
43048;SDS011;28673;44.412;11.918;2023-02-28T02:09:45;21.30;;;10.82;;
43048;SDS011;28673;44.412;11.918;2023-02-28T02:12:22;16.45;;;11.05;;
43048;SDS011;28673;44.412;11.918;2023-02-28T02:15:00;18.27;;;10.25;;
43048;SDS011;28673;44.412;11.918;2023-02-28T02:17:38;14.98;;;10.57;;
43048;SDS011;28673;44.412;11.918;2023-02-28T02:28:59;19.35;;;10.93;;
43048;SDS011;28673;44.412;11.918;2023-02-28T02:46:42;15.48;;;10.73;;
43048;SDS011;28673;44.412;11.918;2023-02-28T02:49:20;21.63;;;11.70;;
43048;SDS011;28673;44.412;11.918;2023-02-28T02:51:51;19.58;;;11.40;;
43048;SDS011;28673;44.412;11.918;2023-02-28T02:54:31;20.95;;;12.10;;
43048;SDS011;28673;44.412;11.918;2023-02-28T02:57:01;21.08;;;11.98;;
43048;SDS011;28673;44.412;11.918;2023-02-28T02:59:31;19.85;;;10.90;;
43048;SDS011;28673;44.412;11.918;2023-02-28T03:02:02;15.25;;;11.10;;
43048;SDS011;28673;44.412;11.918;2023-02-28T03:04:33;20.08;;;11.35;;
43048;SDS011;28673;44.412;11.918;2023-02-28T03:09:40;20.30;;;12.73;;
43048;SDS011;28673;44.412;11.918;2023-02-28T03:12:08;24.65;;;12.38;;
43048;SDS011;28673;44.412;11.918;2023-02-28T03:18:02;24.57;;;10.73;;
43048;SDS011;28673;44.412;11.918;2023-02-28T03:20:53;19.27;;;11.90;;
43048;SDS011;28673;44.412;11.918;2023-02-28T03:23:38;17.65;;;10.80;;
43048;SDS011;28673;44.412;11.918;2023-02-28T03:26:25;16.25;;;10.32;;
43048;SDS011;28673;44.412;11.918;2023-02-28T03:29:02;22.88;;;11.02;;
43048;SDS011;28673;44.412;11.918;2023-02-28T03:32:04;24.45;;;10.38;;
43048;SDS011;28673;44.412;11.918;2023-02-28T03:35:02;17.20;;;11.77;;
43048;SDS011;28673;44.412;11.918;2023-02-28T03:37:38;21.45;;;11.68;;
43048;SDS011;28673;44.412;11.918;2023-02-28T03:40:09;23.85;;;11.60;;
43048;SDS011;28673;44.412;11.918;2023-02-28T03:42:38;21.73;;;12.00;;
43048;SDS011;28673;44.412;11.918;2023-02-28T03:45:11;19.90;;;11.57;;
43048;SDS011;28673;44.412;11.918;2023-02-28T03:47:46;21.25;;;11.00;;
43048;SDS011;28673;44.412;11.918;2023-02-28T03:52:53;18.42;;;11.15;;
43048;SDS011;28673;44.412;11.918;2023-02-28T03:55:30;20.45;;;11.15;;
43048;SDS011;28673;44.412;11.918;2023-02-28T03:58:05;20.27;;;10.50;;
43048;SDS011;28673;44.412;11.918;2023-02-28T04:00:55;17.38;;;11.10;;
43048;SDS011;28673;44.412;11.918;2023-02-28T04:03:33;24.58;;;11.13;;
43048;SDS011;28673;44.412;11.918;2023-02-28T04:06:00;20.00;;;12.18;;
43048;SDS011;28673;44.412;11.918;2023-02-28T04:08:27;18.48;;;10.15;;
43048;SDS011;28673;44.412;11.918;2023-02-28T04:10:57;19.88;;;11.52;;
43048;SDS011;28673;44.412;11.918;2023-02-28T04:13:31;22.40;;;12.27;;
43048;SDS011;28673;44.412;11.918;2023-02-28T04:15:56;21.60;;;12.60;;
43048;SDS011;28673;44.412;11.918;2023-02-28T04:18:22;24.27;;;11.45;;
43048;SDS011;28673;44.412;11.918;2023-02-28T04:20:48;22.83;;;11.93;;
43048;SDS011;28673;44.412;11.918;2023-02-28T04:23:14;23.75;;;11.32;;
43048;SDS011;28673;44.412;11.918;2023-02-28T04:25:40;21.38;;;11.18;;
43048;SDS011;28673;44.412;11.918;2023-02-28T04:28:06;19.20;;;12.43;;
43048;SDS011;28673;44.412;11.918;2023-02-28T04:30:32;18.45;;;11.45;;
43048;SDS011;28673;44.412;11.918;2023-02-28T04:32:58;19.70;;;11.80;;
43048;SDS011;28673;44.412;11.918;2023-02-28T04:35:24;16.70;;;11.07;;
43048;SDS011;28673;44.412;11.918;2023-02-28T04:37:50;16.83;;;11.43;;
43048;SDS011;28673;44.412;11.918;2023-02-28T04:40:16;17.33;;;11.68;;
43048;SDS011;28673;44.412;11.918;2023-02-28T04:42:42;18.15;;;10.90;;
43048;SDS011;28673;44.412;11.918;2023-02-28T04:45:08;17.80;;;11.93;;
43048;SDS011;28673;44.412;11.918;2023-02-28T04:47:35;21.30;;;10.75;;
43048;SDS011;28673;44.412;11.918;2023-02-28T04:50:01;20.88;;;12.20;;
43048;SDS011;28673;44.412;11.918;2023-02-28T04:52:28;27.48;;;11.82;;
43048;SDS011;28673;44.412;11.918;2023-02-28T04:54:54;16.92;;;10.85;;
43048;SDS011;28673;44.412;11.918;2023-02-28T04:57:20;22.45;;;12.70;;
43048;SDS011;28673;44.412;11.918;2023-02-28T04:59:46;22.08;;;12.40;;
43048;SDS011;28673;44.412;11.918;2023-02-28T05:02:12;18.20;;;11.25;;
43048;SDS011;28673;44.412;11.918;2023-02-28T05:04:38;27.15;;;11.80;;
43048;SDS011;28673;44.412;11.918;2023-02-28T05:07:03;26.90;;;13.57;;
43048;SDS011;28673;44.412;11.918;2023-02-28T05:09:29;19.25;;;12.43;;
43048;SDS011;28673;44.412;11.918;2023-02-28T05:11:55;17.85;;;11.63;;
43048;SDS011;28673;44.412;11.918;2023-02-28T05:14:21;22.10;;;13.05;;
43048;SDS011;28673;44.412;11.918;2023-02-28T05:16:47;24.65;;;11.98;;
43048;SDS011;28673;44.412;11.918;2023-02-28T05:19:12;20.10;;;12.40;;
43048;SDS011;28673;44.412;11.918;2023-02-28T05:21:39;17.92;;;11.77;;
43048;SDS011;28673;44.412;11.918;2023-02-28T05:24:16;18.08;;;12.05;;
43048;SDS011;28673;44.412;11.918;2023-02-28T05:26:48;21.58;;;14.20;;
43048;SDS011;28673;44.412;11.918;2023-02-28T05:29:16;20.42;;;12.07;;
43048;SDS011;28673;44.412;11.918;2023-02-28T05:31:42;24.75;;;13.63;;
43048;SDS011;28673;44.412;11.918;2023-02-28T05:34:07;23.90;;;13.15;;
43048;SDS011;28673;44.412;11.918;2023-02-28T05:36:36;20.00;;;11.88;;
43048;SDS011;28673;44.412;11.918;2023-02-28T05:39:03;26.65;;;12.88;;
43048;SDS011;28673;44.412;11.918;2023-02-28T05:41:30;19.45;;;11.63;;
43048;SDS011;28673;44.412;11.918;2023-02-28T05:43:56;21.55;;;12.82;;
43048;SDS011;28673;44.412;11.918;2023-02-28T05:46:23;31.83;;;13.18;;
43048;SDS011;28673;44.412;11.918;2023-02-28T05:48:48;22.83;;;13.27;;
43048;SDS011;28673;44.412;11.918;2023-02-28T05:51:17;23.58;;;12.90;;
43048;SDS011;28673;44.412;11.918;2023-02-28T05:53:43;23.48;;;13.63;;
43048;SDS011;28673;44.412;11.918;2023-02-28T05:56:09;26.38;;;13.15;;
43048;SDS011;28673;44.412;11.918;2023-02-28T05:58:35;30.35;;;13.95;;
43048;SDS011;28673;44.412;11.918;2023-02-28T06:01:18;23.80;;;11.98;;
43048;SDS011;28673;44.412;11.918;2023-02-28T06:04:01;22.50;;;13.05;;
43048;SDS011;28673;44.412;11.918;2023-02-28T06:06:28;23.73;;;13.63;;
43048;SDS011;28673;44.412;11.918;2023-02-28T06:08:55;28.30;;;14.20;;
43048;SDS011;28673;44.412;11.918;2023-02-28T06:11:21;26.88;;;14.80;;
43048;SDS011;28673;44.412;11.918;2023-02-28T06:13:55;17.90;;;10.20;;
43048;SDS011;28673;44.412;11.918;2023-02-28T06:16:23;24.00;;;13.63;;
43048;SDS011;28673;44.412;11.918;2023-02-28T06:18:49;26.00;;;13.50;;
43048;SDS011;28673;44.412;11.918;2023-02-28T06:21:15;27.73;;;13.35;;
43048;SDS011;28673;44.412;11.918;2023-02-28T06:23:41;21.77;;;13.07;;
43048;SDS011;28673;44.412;11.918;2023-02-28T06:26:07;24.90;;;14.15;;
43048;SDS011;28673;44.412;11.918;2023-02-28T06:28:32;29.75;;;14.90;;
43048;SDS011;28673;44.412;11.918;2023-02-28T06:30:58;24.52;;;15.15;;
43048;SDS011;28673;44.412;11.918;2023-02-28T06:33:24;34.30;;;15.55;;
43048;SDS011;28673;44.412;11.918;2023-02-28T06:35:50;29.73;;;13.93;;
43048;SDS011;28673;44.412;11.918;2023-02-28T06:38:17;21.65;;;13.30;;
43048;SDS011;28673;44.412;11.918;2023-02-28T06:40:43;27.60;;;15.27;;
43048;SDS011;28673;44.412;11.918;2023-02-28T06:43:09;22.85;;;13.95;;
43048;SDS011;28673;44.412;11.918;2023-02-28T06:45:41;25.90;;;14.60;;
43048;SDS011;28673;44.412;11.918;2023-02-28T06:48:08;22.92;;;15.25;;
43048;SDS011;28673;44.412;11.918;2023-02-28T06:50:35;32.05;;;15.43;;
43048;SDS011;28673;44.412;11.918;2023-02-28T06:53:01;21.05;;;13.30;;
43048;SDS011;28673;44.412;11.918;2023-02-28T06:55:27;23.95;;;14.38;;
43048;SDS011;28673;44.412;11.918;2023-02-28T06:57:53;24.38;;;13.85;;
43048;SDS011;28673;44.412;11.918;2023-02-28T07:00:20;28.48;;;13.73;;
43048;SDS011;28673;44.412;11.918;2023-02-28T07:02:46;28.73;;;14.10;;
43048;SDS011;28673;44.412;11.918;2023-02-28T07:05:12;24.30;;;14.43;;
43048;SDS011;28673;44.412;11.918;2023-02-28T07:07:38;26.15;;;14.02;;
43048;SDS011;28673;44.412;11.918;2023-02-28T07:10:09;24.90;;;13.98;;
43048;SDS011;28673;44.412;11.918;2023-02-28T07:12:36;25.45;;;14.50;;
43048;SDS011;28673;44.412;11.918;2023-02-28T07:15:03;18.50;;;12.30;;
43048;SDS011;28673;44.412;11.918;2023-02-28T07:17:30;25.98;;;13.60;;
43048;SDS011;28673;44.412;11.918;2023-02-28T07:19:56;22.15;;;13.65;;
43048;SDS011;28673;44.412;11.918;2023-02-28T07:22:22;27.52;;;15.38;;
43048;SDS011;28673;44.412;11.918;2023-02-28T07:24:48;29.13;;;15.25;;
43048;SDS011;28673;44.412;11.918;2023-02-28T07:27:13;29.40;;;13.70;;
43048;SDS011;28673;44.412;11.918;2023-02-28T07:29:49;22.92;;;13.52;;
43048;SDS011;28673;44.412;11.918;2023-02-28T07:32:15;28.08;;;14.05;;
43048;SDS011;28673;44.412;11.918;2023-02-28T07:34:42;23.17;;;14.73;;
43048;SDS011;28673;44.412;11.918;2023-02-28T07:37:08;30.88;;;13.93;;
43048;SDS011;28673;44.412;11.918;2023-02-28T07:39:35;22.10;;;13.70;;
43048;SDS011;28673;44.412;11.918;2023-02-28T07:42:06;28.77;;;13.35;;
43048;SDS011;28673;44.412;11.918;2023-02-28T07:44:35;27.17;;;14.25;;
43048;SDS011;28673;44.412;11.918;2023-02-28T07:47:08;22.88;;;13.70;;
43048;SDS011;28673;44.412;11.918;2023-02-28T07:49:38;23.75;;;13.25;;
43048;SDS011;28673;44.412;11.918;2023-02-28T07:52:04;24.63;;;12.85;;
43048;SDS011;28673;44.412;11.918;2023-02-28T07:54:31;23.35;;;14.63;;
43048;SDS011;28673;44.412;11.918;2023-02-28T07:56:58;26.15;;;15.35;;
43048;SDS011;28673;44.412;11.918;2023-02-28T07:59:24;21.27;;;13.52;;
43048;SDS011;28673;44.412;11.918;2023-02-28T08:01:50;34.15;;;15.07;;
43048;SDS011;28673;44.412;11.918;2023-02-28T08:04:17;20.52;;;13.48;;
43048;SDS011;28673;44.412;11.918;2023-02-28T08:06:43;24.35;;;14.88;;
43048;SDS011;28673;44.412;11.918;2023-02-28T08:09:09;23.20;;;15.13;;
43048;SDS011;28673;44.412;11.918;2023-02-28T08:11:34;28.00;;;14.10;;
43048;SDS011;28673;44.412;11.918;2023-02-28T08:14:01;20.98;;;14.05;;
43048;SDS011;28673;44.412;11.918;2023-02-28T08:16:27;23.25;;;14.48;;
43048;SDS011;28673;44.412;11.918;2023-02-28T08:18:53;26.83;;;15.38;;
43048;SDS011;28673;44.412;11.918;2023-02-28T08:21:19;26.92;;;15.52;;
43048;SDS011;28673;44.412;11.918;2023-02-28T08:23:49;23.45;;;13.30;;
43048;SDS011;28673;44.412;11.918;2023-02-28T08:26:16;21.55;;;14.70;;
43048;SDS011;28673;44.412;11.918;2023-02-28T08:28:43;30.58;;;15.65;;
43048;SDS011;28673;44.412;11.918;2023-02-28T08:31:10;31.98;;;16.23;;
43048;SDS011;28673;44.412;11.918;2023-02-28T08:33:37;24.95;;;15.48;;
43048;SDS011;28673;44.412;11.918;2023-02-28T08:36:04;26.50;;;14.63;;
43048;SDS011;28673;44.412;11.918;2023-02-28T08:38:31;22.63;;;14.00;;
43048;SDS011;28673;44.412;11.918;2023-02-28T08:40:58;21.50;;;14.93;;
43048;SDS011;28673;44.412;11.918;2023-02-28T08:43:28;25.65;;;15.85;;
43048;SDS011;28673;44.412;11.918;2023-02-28T08:45:57;27.70;;;15.02;;
43048;SDS011;28673;44.412;11.918;2023-02-28T08:48:24;25.30;;;15.25;;
43048;SDS011;28673;44.412;11.918;2023-02-28T08:50:57;33.28;;;16.35;;
43048;SDS011;28673;44.412;11.918;2023-02-28T08:53:24;24.15;;;13.80;;
43048;SDS011;28673;44.412;11.918;2023-02-28T08:56:00;23.85;;;14.63;;
43048;SDS011;28673;44.412;11.918;2023-02-28T08:58:30;21.83;;;14.15;;
43048;SDS011;28673;44.412;11.918;2023-02-28T09:01:09;23.80;;;14.90;;
43048;SDS011;28673;44.412;11.918;2023-02-28T09:03:37;27.83;;;16.25;;
43048;SDS011;28673;44.412;11.918;2023-02-28T09:06:03;25.15;;;14.38;;
43048;SDS011;28673;44.412;11.918;2023-02-28T09:08:30;27.20;;;14.43;;
43048;SDS011;28673;44.412;11.918;2023-02-28T09:10:57;27.15;;;13.95;;
43048;SDS011;28673;44.412;11.918;2023-02-28T09:13:27;21.65;;;14.30;;
43048;SDS011;28673;44.412;11.918;2023-02-28T09:15:54;20.02;;;13.02;;
43048;SDS011;28673;44.412;11.918;2023-02-28T09:18:22;26.77;;;13.23;;
43048;SDS011;28673;44.412;11.918;2023-02-28T09:20:48;30.33;;;15.13;;
43048;SDS011;28673;44.412;11.918;2023-02-28T09:23:26;21.75;;;13.63;;
43048;SDS011;28673;44.412;11.918;2023-02-28T09:25:55;30.45;;;15.10;;
43048;SDS011;28673;44.412;11.918;2023-02-28T09:28:25;24.20;;;13.32;;
43048;SDS011;28673;44.412;11.918;2023-02-28T09:30:52;27.83;;;13.77;;
43048;SDS011;28673;44.412;11.918;2023-02-28T09:33:21;24.10;;;13.23;;
43048;SDS011;28673;44.412;11.918;2023-02-28T09:35:47;20.33;;;13.50;;
43048;SDS011;28673;44.412;11.918;2023-02-28T09:38:14;25.20;;;12.43;;
43048;SDS011;28673;44.412;11.918;2023-02-28T09:40:50;21.92;;;12.63;;
43048;SDS011;28673;44.412;11.918;2023-02-28T09:43:20;18.60;;;11.45;;
43048;SDS011;28673;44.412;11.918;2023-02-28T09:45:55;17.95;;;10.55;;
43048;SDS011;28673;44.412;11.918;2023-02-28T09:48:44;22.05;;;11.13;;
43048;SDS011;28673;44.412;11.918;2023-02-28T09:51:15;21.00;;;10.52;;
43048;SDS011;28673;44.412;11.918;2023-02-28T09:53:46;11.55;;;8.63;;
43048;SDS011;28673;44.412;11.918;2023-02-28T09:56:18;13.60;;;8.85;;
43048;SDS011;28673;44.412;11.918;2023-02-28T09:58:55;16.52;;;10.52;;
43048;SDS011;28673;44.412;11.918;2023-02-28T10:01:27;19.38;;;10.02;;
43048;SDS011;28673;44.412;11.918;2023-02-28T10:06:46;11.93;;;8.23;;
43048;SDS011;28673;44.412;11.918;2023-02-28T10:09:18;12.95;;;8.90;;
43048;SDS011;28673;44.412;11.918;2023-02-28T10:12:06;14.48;;;8.82;;
43048;SDS011;28673;44.412;11.918;2023-02-28T10:14:35;11.77;;;7.97;;
43048;SDS011;28673;44.412;11.918;2023-02-28T10:17:12;14.70;;;8.13;;
43048;SDS011;28673;44.412;11.918;2023-02-28T10:19:44;10.63;;;7.72;;
43048;SDS011;28673;44.412;11.918;2023-02-28T10:22:17;13.20;;;7.43;;
43048;SDS011;28673;44.412;11.918;2023-02-28T10:25:16;12.43;;;8.02;;
43048;SDS011;28673;44.412;11.918;2023-02-28T10:27:45;10.70;;;7.40;;
43048;SDS011;28673;44.412;11.918;2023-02-28T10:30:11;11.32;;;8.02;;
43048;SDS011;28673;44.412;11.918;2023-02-28T10:32:39;15.75;;;8.02;;
43048;SDS011;28673;44.412;11.918;2023-02-28T10:37:45;13.27;;;7.07;;
43048;SDS011;28673;44.412;11.918;2023-02-28T10:45:23;12.80;;;8.00;;
43048;SDS011;28673;44.412;11.918;2023-02-28T10:47:56;14.68;;;8.25;;
43048;SDS011;28673;44.412;11.918;2023-02-28T10:55:58;16.55;;;7.43;;
43048;SDS011;28673;44.412;11.918;2023-02-28T11:07:20;14.85;;;9.20;;
43048;SDS011;28673;44.412;11.918;2023-02-28T11:09:48;9.77;;;6.90;;
43048;SDS011;28673;44.412;11.918;2023-02-28T11:12:20;12.32;;;7.32;;
43048;SDS011;28673;44.412;11.918;2023-02-28T11:15:04;12.73;;;7.18;;
43048;SDS011;28673;44.412;11.918;2023-02-28T11:20:31;13.05;;;8.00;;
43048;SDS011;28673;44.412;11.918;2023-02-28T11:23:00;16.60;;;9.13;;
43048;SDS011;28673;44.412;11.918;2023-02-28T11:27:58;11.90;;;7.43;;
43048;SDS011;28673;44.412;11.918;2023-02-28T11:30:41;12.23;;;6.88;;
43048;SDS011;28673;44.412;11.918;2023-02-28T11:35:52;11.05;;;6.88;;
43048;SDS011;28673;44.412;11.918;2023-02-28T11:38:25;11.25;;;6.70;;
43048;SDS011;28673;44.412;11.918;2023-02-28T11:43:25;8.70;;;6.57;;
43048;SDS011;28673;44.412;11.918;2023-02-28T11:46:07;14.23;;;7.97;;
43048;SDS011;28673;44.412;11.918;2023-02-28T11:51:32;8.52;;;6.07;;
43048;SDS011;28673;44.412;11.918;2023-02-28T11:59:53;10.68;;;6.57;;
43048;SDS011;28673;44.412;11.918;2023-02-28T12:13:01;11.93;;;6.50;;
43048;SDS011;28673;44.412;11.918;2023-02-28T12:15:34;11.10;;;6.47;;
43048;SDS011;28673;44.412;11.918;2023-02-28T12:20:41;12.73;;;7.13;;
43048;SDS011;28673;44.412;11.918;2023-02-28T12:26:06;11.93;;;8.38;;
43048;SDS011;28673;44.412;11.918;2023-02-28T12:28:43;9.20;;;7.68;;
43048;SDS011;28673;44.412;11.918;2023-02-28T12:33:51;16.23;;;9.15;;
43048;SDS011;28673;44.412;11.918;2023-02-28T12:36:30;12.15;;;7.80;;
43048;SDS011;28673;44.412;11.918;2023-02-28T12:38:58;19.55;;;13.10;;
43048;SDS011;28673;44.412;11.918;2023-02-28T12:41:33;25.63;;;13.63;;
43048;SDS011;28673;44.412;11.918;2023-02-28T12:44:49;24.98;;;16.15;;
43048;SDS011;28673;44.412;11.918;2023-02-28T12:47:16;22.38;;;13.75;;
43048;SDS011;28673;44.412;11.918;2023-02-28T12:52:35;20.05;;;13.88;;
43048;SDS011;28673;44.412;11.918;2023-02-28T13:01:19;27.25;;;13.80;;
43048;SDS011;28673;44.412;11.918;2023-02-28T13:06:29;20.50;;;12.65;;
43048;SDS011;28673;44.412;11.918;2023-02-28T13:09:20;21.27;;;12.77;;
43048;SDS011;28673;44.412;11.918;2023-02-28T13:11:50;21.17;;;13.38;;
43048;SDS011;28673;44.412;11.918;2023-02-28T13:14:22;17.40;;;12.68;;
43048;SDS011;28673;44.412;11.918;2023-02-28T13:19:36;20.52;;;11.63;;
43048;SDS011;28673;44.412;11.918;2023-02-28T13:22:55;19.48;;;12.02;;
43048;SDS011;28673;44.412;11.918;2023-02-28T13:27:48;23.52;;;12.48;;
43048;SDS011;28673;44.412;11.918;2023-02-28T13:38:44;23.65;;;13.80;;
43048;SDS011;28673;44.412;11.918;2023-02-28T13:46:31;21.42;;;13.32;;
43048;SDS011;28673;44.412;11.918;2023-02-28T13:49:46;24.33;;;14.00;;
43048;SDS011;28673;44.412;11.918;2023-02-28T13:51:51;26.23;;;14.85;;
43048;SDS011;28673;44.412;11.918;2023-02-28T13:57:25;24.73;;;14.43;;
43048;SDS011;28673;44.412;11.918;2023-02-28T14:00:17;25.02;;;14.18;;
43048;SDS011;28673;44.412;11.918;2023-02-28T14:03:18;24.88;;;13.95;;
43048;SDS011;28673;44.412;11.918;2023-02-28T14:06:14;22.50;;;15.73;;
43048;SDS011;28673;44.412;11.918;2023-02-28T14:11:39;26.92;;;15.18;;
43048;SDS011;28673;44.412;11.918;2023-02-28T14:14:08;26.05;;;15.60;;
43048;SDS011;28673;44.412;11.918;2023-02-28T14:16:55;22.90;;;15.68;;
43048;SDS011;28673;44.412;11.918;2023-02-28T14:19:25;23.70;;;16.08;;
43048;SDS011;28673;44.412;11.918;2023-02-28T14:22:18;25.55;;;15.07;;
43048;SDS011;28673;44.412;11.918;2023-02-28T14:25:07;22.13;;;12.60;;
43048;SDS011;28673;44.412;11.918;2023-02-28T14:35:55;23.38;;;15.88;;
43048;SDS011;28673;44.412;11.918;2023-02-28T14:38:59;25.95;;;15.15;;
43048;SDS011;28673;44.412;11.918;2023-02-28T14:41:32;29.70;;;17.27;;
43048;SDS011;28673;44.412;11.918;2023-02-28T14:46:44;29.27;;;16.40;;
43048;SDS011;28673;44.412;11.918;2023-02-28T14:49:19;24.40;;;15.13;;
43048;SDS011;28673;44.412;11.918;2023-02-28T14:54:37;24.05;;;15.00;;
43048;SDS011;28673;44.412;11.918;2023-02-28T14:57:04;29.88;;;16.27;;
43048;SDS011;28673;44.412;11.918;2023-02-28T14:59:31;28.10;;;16.15;;
43048;SDS011;28673;44.412;11.918;2023-02-28T15:02:16;28.48;;;17.38;;
43048;SDS011;28673;44.412;11.918;2023-02-28T15:04:58;45.67;;;21.52;;
43048;SDS011;28673;44.412;11.918;2023-02-28T15:07:26;45.40;;;22.42;;
43048;SDS011;28673;44.412;11.918;2023-02-28T15:12:36;32.28;;;20.27;;
43048;SDS011;28673;44.412;11.918;2023-02-28T15:15:05;37.42;;;20.02;;
43048;SDS011;28673;44.412;11.918;2023-02-28T15:17:32;50.05;;;29.88;;
43048;SDS011;28673;44.412;11.918;2023-02-28T15:20:00;59.45;;;33.55;;
43048;SDS011;28673;44.412;11.918;2023-02-28T15:22:33;60.72;;;33.05;;
43048;SDS011;28673;44.412;11.918;2023-02-28T15:25:02;36.58;;;23.40;;
43048;SDS011;28673;44.412;11.918;2023-02-28T15:27:32;27.98;;;18.48;;
43048;SDS011;28673;44.412;11.918;2023-02-28T15:30:04;32.30;;;17.40;;
43048;SDS011;28673;44.412;11.918;2023-02-28T15:32:33;36.45;;;19.35;;
43048;SDS011;28673;44.412;11.918;2023-02-28T15:37:47;26.08;;;17.23;;
43048;SDS011;28673;44.412;11.918;2023-02-28T15:40:38;25.15;;;16.58;;
43048;SDS011;28673;44.412;11.918;2023-02-28T15:45:43;44.25;;;23.50;;
43048;SDS011;28673;44.412;11.918;2023-02-28T15:48:22;31.20;;;19.02;;
43048;SDS011;28673;44.412;11.918;2023-02-28T15:50:57;29.40;;;17.67;;
43048;SDS011;28673;44.412;11.918;2023-02-28T15:53:33;37.05;;;21.08;;
43048;SDS011;28673;44.412;11.918;2023-02-28T15:58:58;35.22;;;20.35;;
43048;SDS011;28673;44.412;11.918;2023-02-28T16:01:35;26.63;;;16.27;;
43048;SDS011;28673;44.412;11.918;2023-02-28T16:06:41;25.83;;;16.40;;
43048;SDS011;28673;44.412;11.918;2023-02-28T16:09:14;26.77;;;16.77;;
43048;SDS011;28673;44.412;11.918;2023-02-28T16:11:42;28.23;;;17.65;;
43048;SDS011;28673;44.412;11.918;2023-02-28T16:14:14;32.28;;;16.45;;
43048;SDS011;28673;44.412;11.918;2023-02-28T16:16:48;39.67;;;17.80;;
43048;SDS011;28673;44.412;11.918;2023-02-28T16:19:15;29.55;;;18.75;;
43048;SDS011;28673;44.412;11.918;2023-02-28T16:21:41;33.75;;;18.77;;
43048;SDS011;28673;44.412;11.918;2023-02-28T16:24:07;31.13;;;17.42;;
43048;SDS011;28673;44.412;11.918;2023-02-28T16:26:33;31.10;;;19.27;;
43048;SDS011;28673;44.412;11.918;2023-02-28T16:29:00;31.02;;;18.55;;
43048;SDS011;28673;44.412;11.918;2023-02-28T16:31:27;33.92;;;19.65;;
43048;SDS011;28673;44.412;11.918;2023-02-28T16:33:53;35.28;;;18.02;;
43048;SDS011;28673;44.412;11.918;2023-02-28T16:36:20;32.42;;;20.10;;
43048;SDS011;28673;44.412;11.918;2023-02-28T16:38:50;27.33;;;16.55;;
43048;SDS011;28673;44.412;11.918;2023-02-28T16:41:17;37.75;;;17.35;;
43048;SDS011;28673;44.412;11.918;2023-02-28T16:43:46;32.22;;;18.58;;
43048;SDS011;28673;44.412;11.918;2023-02-28T16:46:14;31.85;;;18.17;;
43048;SDS011;28673;44.412;11.918;2023-02-28T16:48:42;30.15;;;19.52;;
43048;SDS011;28673;44.412;11.918;2023-02-28T16:51:12;33.03;;;18.58;;
43048;SDS011;28673;44.412;11.918;2023-02-28T16:54:05;29.52;;;19.77;;
43048;SDS011;28673;44.412;11.918;2023-02-28T16:56:32;31.05;;;19.48;;
43048;SDS011;28673;44.412;11.918;2023-02-28T16:59:01;30.38;;;19.30;;
43048;SDS011;28673;44.412;11.918;2023-02-28T17:01:28;33.80;;;20.25;;
43048;SDS011;28673;44.412;11.918;2023-02-28T17:03:54;28.08;;;18.23;;
43048;SDS011;28673;44.412;11.918;2023-02-28T17:06:21;32.35;;;19.35;;
43048;SDS011;28673;44.412;11.918;2023-02-28T17:08:50;34.42;;;18.50;;
43048;SDS011;28673;44.412;11.918;2023-02-28T17:11:16;32.33;;;19.10;;
43048;SDS011;28673;44.412;11.918;2023-02-28T17:13:43;33.53;;;19.63;;